Shannon Plaza, North Carolina
Current Conditions -  °F | °C
As of 3:56 PM on Tuesday 21 Oct 2014 (Local Time) from KIGX Reporting Station
Scattered Clouds Scattered Clouds  
Wind Chill: 72°   Ceiling: Unl
Heat Index: 72°   Visibility: 10mi
Dew Point: 47°   Wind: 5mph
Humidity: 41%   Direction: NA
Pressure: 29.84"   Gusts: NA
Location:  35.955°N, 78.9434°W
Report Text: KIGX 211956Z AUTO VRB04KT 10SM SCT075 22/08 A2984 RMK AO2 SLP100 T02220083
Loading
Personal Weather Stations






























Interactive Weather Map
Tropical Storm Tracking
New forecast layout! Learn more

10-Day Weather Forecast

Advertisements
Track Severe Weather on mobile